Time;durP1;ratioP1;P1;durP2;ratioP2;P2;SDS_P1;SDS_P2;PMS_P1;PMS_P2;Temp;Humidity;BMP_temperature;BMP_pressure;BME280_temperature;BME280_humidity;BME280_pressure;Samples;Min_cycle;Max_cycle;Signal;HPM_P1;HPM_P2
2022/09/07 00:01:03;;;;;;;2.85;2.65;;;;;;;17.71;95.77;98741.09;5054882;28;20173;-53
2022/09/07 00:03:29;;;;;;;3.05;2.80;;;;;;;17.52;97.38;98743.75;5054560;28;20650;-53
2022/09/07 00:05:54;;;;;;;3.95;3.10;;;;;;;17.30;99.00;98741.41;5054366;28;20170;-53
2022/09/07 00:08:22;;;;;;;3.15;2.90;;;;;;;17.64;95.20;98750.50;5054416;28;20197;-53
2022/09/07 00:10:59;;;;;;;3.97;3.20;;;;;;;17.69;94.89;98753.50;5054383;28;20177;-53
2022/09/07 00:13:28;;;;;;;2.80;2.60;;;;;;;17.70;95.54;98760.41;5054654;28;20169;-53
2022/09/07 00:15:53;;;;;;;4.05;2.97;;;;;;;17.79;94.93;98758.72;5054340;28;20612;-51
2022/09/07 00:18:19;;;;;;;3.10;2.55;;;;;;;17.62;95.54;98751.59;5054276;28;20181;-51
2022/09/07 00:20:44;;;;;;;3.38;3.08;;;;;;;17.54;95.83;98756.72;5054207;28;20173;-51
2022/09/07 00:23:11;;;;;;;2.97;2.78;;;;;;;17.75;94.33;98762.59;5054188;28;20173;-51
2022/09/07 00:25:38;;;;;;;4.13;2.72;;;;;;;17.57;95.50;98764.28;5054135;28;20181;-51
2022/09/07 00:28:03;;;;;;;5.03;2.97;;;;;;;17.41;96.11;98753.53;5054017;28;20205;-51
2022/09/07 00:30:29;;;;;;;3.60;2.88;;;;;;;17.48;95.03;98765.94;5054042;28;20264;-51
2022/09/07 00:32:54;;;;;;;3.17;2.35;;;;;;;17.54;95.10;98775.03;5053929;28;20231;-51
2022/09/07 00:35:19;;;;;;;2.65;2.45;;;;;;;17.72;93.02;98773.34;5053959;28;20223;-52
2022/09/07 00:37:45;;;;;;;2.95;2.70;;;;;;;17.55;93.33;98771.44;5054094;28;20632;-52
2022/09/07 00:40:10;;;;;;;5.07;2.83;;;;;;;17.21;96.64;98770.19;5053897;28;20173;-51
2022/09/07 00:42:36;;;;;;;2.75;2.55;;;;;;;17.08;96.38;98777.47;5053809;28;20177;-51
2022/09/07 00:45:07;;;;;;;2.80;2.33;;;;;;;17.06;90.33;98771.53;5035871;28;20618;-51
2022/09/07 00:47:56;;;;;;;3.30;2.30;;;;;;;17.22;89.30;98761.38;5054028;28;20181;-51
2022/09/07 00:50:43;;;;;;;2.05;1.92;;;;;;;17.22;89.41;98769.22;5053672;28;20602;-51
2022/09/07 00:53:14;;;;;;;3.17;2.40;;;;;;;17.30;89.53;98767.56;5053915;28;20248;-51
2022/09/07 00:55:43;;;;;;;2.88;2.67;;;;;;;17.00;93.40;98764.25;5052883;28;20231;-51
2022/09/07 00:58:09;;;;;;;7.32;2.60;;;;;;;17.29;91.31;98765.91;5053595;28;20173;-51
2022/09/07 01:00:35;;;;;;;2.42;2.33;;;;;;;17.05;93.62;98756.81;5053486;28;20191;-52
2022/09/07 01:03:02;;;;;;;3.45;2.70;;;;;;;17.22;92.73;98766.59;5053434;28;20698;-52
2022/09/07 01:05:39;;;;;;;3.03;2.47;;;;;;;17.11;93.66;98762.34;5053373;28;20654;-52
2022/09/07 01:08:05;;;;;;;3.00;2.33;;;;;;;17.39;90.21;98765.94;5053130;28;20208;-52
2022/09/07 01:10:32;;;;;;;4.75;2.40;;;;;;;17.63;87.00;98768.94;5053262;28;20169;-51
2022/09/07 01:12:59;;;;;;;2.72;2.47;;;;;;;17.22;91.37;98769.22;5053474;28;20196;-52
2022/09/07 01:16:04;;;;;;;3.15;2.42;;;;;;;16.86;94.28;98775.09;5053175;28;20205;-52
2022/09/07 01:18:48;;;;;;;2.75;2.55;;;;;;;16.81;95.03;98777.28;4972476;28;20191;-52
2022/09/07 01:21:26;;;;;;;2.28;2.13;;;;;;;16.14;100.00;98760.53;5046666;28;20272;-51
2022/09/07 01:24:07;;;;;;;3.47;2.85;;;;;;;16.25;100.00;98770.91;5053074;28;20672;-52
2022/09/07 01:27:09;;;;;;;2.97;2.78;;;;;;;16.09;100.00;98766.16;5053067;28;20165;-52
2022/09/07 01:29:37;;;;;;;5.82;2.70;;;;;;;16.17;100.00;98773.34;5053080;28;20212;-51
2022/09/07 01:32:23;;;;;;;3.30;3.00;;;;;;;16.23;100.00;98767.59;5052854;28;20181;-52
2022/09/07 01:34:53;;;;;;;6.13;2.63;;;;;;;16.11;100.00;98768.66;5052181;28;20192;-52
2022/09/07 01:37:35;;;;;;;4.15;2.60;;;;;;;16.03;100.00;98760.66;5053142;28;20211;-51
2022/09/07 01:40:12;;;;;;;4.97;2.90;;;;;;;15.88;100.00;98768.00;5052798;28;20161;-51
2022/09/07 01:42:48;;;;;;;5.43;2.50;;;;;;;15.61;100.00;98759.00;5052964;28;20166;-51
2022/09/07 01:45:17;;;;;;;3.85;2.70;;;;;;;15.60;100.00;98754.75;5052725;28;20191;-52
2022/09/07 01:47:46;;;;;;;2.67;2.25;;;;;;;15.86;100.00;98743.78;5052612;28;20170;-51
2022/09/07 01:50:36;;;;;;;2.50;2.40;;;;;;;15.82;100.00;98752.00;5052802;28;20208;-52
2022/09/07 01:53:37;;;;;;;3.03;2.72;;;;;;;15.93;100.00;98747.53;5052589;28;20245;-52
2022/09/07 01:56:10;;;;;;;2.95;2.70;;;;;;;16.18;100.00;98743.66;5010354;28;20220;-51
2022/09/07 01:58:53;;;;;;;3.50;2.92;;;;;;;15.96;100.00;98739.44;5052929;28;20173;-52
2022/09/07 02:01:31;;;;;;;2.83;2.63;;;;;;;15.92;100.00;98743.28;5052705;28;20181;-52
2022/09/07 02:04:17;;;;;;;4.03;2.67;;;;;;;15.96;100.00;98738.63;5052281;28;20713;-52
2022/09/07 02:06:52;;;;;;;3.47;2.95;;;;;;;15.83;100.00;98727.56;5052163;28;20606;-52
2022/09/07 02:09:25;;;;;;;3.72;3.42;;;;;;;15.97;100.00;98732.47;5052386;28;20191;-51
2022/09/07 02:11:53;;;;;;;4.68;3.17;;;;;;;15.73;100.00;98717.09;5052456;28;20158;-51
2022/09/07 02:14:29;;;;;;;4.15;3.20;;;;;;;15.61;100.00;98722.50;5052744;28;20181;-52
2022/09/07 02:17:02;;;;;;;5.40;3.80;;;;;;;15.86;100.00;98732.53;5052380;28;20263;-53
2022/09/07 02:19:35;;;;;;;22.50;4.55;;;;;;;15.92;100.00;98732.03;5052655;28;20164;-50
2022/09/07 02:22:07;;;;;;;6.20;3.28;;;;;;;16.17;100.00;98731.56;5052585;28;20536;-51
2022/09/07 02:24:40;;;;;;;3.13;2.85;;;;;;;16.29;100.00;98731.34;5052034;28;20165;-51
2022/09/07 02:27:11;;;;;;;3.63;3.17;;;;;;;16.45;100.00;98731.69;5053114;28;20518;-50
2022/09/07 02:29:37;;;;;;;4.53;3.33;;;;;;;16.49;100.00;98737.50;5051871;28;20189;-50
2022/09/07 02:32:03;;;;;;;4.00;3.65;;;;;;;16.43;100.00;98743.22;5052155;28;20182;-50
2022/09/07 02:34:29;;;;;;;3.65;3.35;;;;;;;16.20;100.00;98726.09;5051789;28;20177;-50
2022/09/07 02:36:56;;;;;;;3.15;2.95;;;;;;;16.12;100.00;98729.38;5052116;28;20627;-51
2022/09/07 02:39:22;;;;;;;3.78;3.47;;;;;;;15.89;100.00;98721.81;5051842;28;20181;-50
2022/09/07 02:41:47;;;;;;;4.30;3.22;;;;;;;15.95;100.00;98729.97;5051858;28;20169;-51
2022/09/07 02:44:18;;;;;;;3.85;3.03;;;;;;;15.73;100.00;98719.69;5051799;28;20177;-50
2022/09/07 02:47:10;;;;;;;3.53;3.22;;;;;;;16.07;100.00;98736.75;5051861;28;20204;-51
2022/09/07 02:49:51;;;;;;;3.53;3.22;;;;;;;16.13;100.00;98735.38;5051786;28;20188;-50
2022/09/07 02:52:25;;;;;;;3.85;3.55;;;;;;;15.99;100.00;98727.94;5051790;28;20256;-50
2022/09/07 02:54:57;;;;;;;3.97;3.58;;;;;;;16.09;100.00;98728.81;5051721;28;20161;-50
2022/09/07 02:57:49;;;;;;;4.53;3.28;;;;;;;16.20;100.00;98732.13;5051791;28;20343;-50
2022/09/07 03:00:24;;;;;;;3.53;3.28;;;;;;;15.67;100.00;98690.69;5052221;28;20252;-50
2022/09/07 03:03:08;;;;;;;6.50;3.60;;;;;;;15.88;100.00;98730.63;5051665;28;20223;-51
2022/09/07 03:05:48;;;;;;;3.75;3.55;;;;;;;16.03;100.00;98724.09;5051537;28;20181;-51
2022/09/07 03:08:23;;;;;;;4.15;3.65;;;;;;;16.09;100.00;98728.81;5051600;28;20209;-50
2022/09/07 03:10:49;;;;;;;3.50;3.30;;;;;;;16.11;100.00;98737.31;5051853;28;20165;-50
2022/09/07 03:13:20;;;;;;;3.40;3.15;;;;;;;15.92;100.00;98738.06;5051548;28;20174;-50
2022/09/07 03:15:45;;;;;;;3.90;3.25;;;;;;;15.65;100.00;98724.75;5051431;28;20179;-50
2022/09/07 03:18:11;;;;;;;3.65;3.20;;;;;;;15.48;100.00;98733.16;5053008;28;20252;-51
2022/09/07 03:20:36;;;;;;;3.67;3.40;;;;;;;15.65;100.00;98729.97;5055351;28;20168;-51
2022/09/07 03:23:02;;;;;;;3.70;3.40;;;;;;;15.76;100.00;98726.44;5055410;28;20169;-51
2022/09/07 03:25:27;;;;;;;3.42;3.22;;;;;;;15.89;100.00;98733.09;5055381;28;20223;-51
2022/09/07 03:27:53;;;;;;;3.35;3.05;;;;;;;15.66;100.00;98699.47;5055222;28;20169;-51
2022/09/07 03:30:18;;;;;;;3.83;3.55;;;;;;;15.82;100.00;98736.34;5055137;28;20660;-51
2022/09/07 03:32:43;;;;;;;7.30;3.75;;;;;;;15.62;100.00;98725.00;5055179;28;20173;-51
2022/09/07 03:35:09;;;;;;;3.58;3.38;;;;;;;15.47;100.00;98738.47;5055327;28;20181;-51
2022/09/07 03:37:35;;;;;;;4.32;3.60;;;;;;;15.35;100.00;98739.50;5055317;28;20235;-51
2022/09/07 03:40:02;;;;;;;4.60;3.45;;;;;;;15.62;100.00;98737.22;5054908;28;20170;-51
2022/09/07 03:42:28;;;;;;;4.28;3.97;;;;;;;15.80;100.00;98712.19;5054979;28;20247;-51
2022/09/07 03:44:53;;;;;;;3.65;3.40;;;;;;;15.99;100.00;98735.75;5054898;28;20256;-51
2022/09/07 03:47:18;;;;;;;5.13;3.22;;;;;;;16.10;100.00;98744.31;5054853;28;20665;-51
2022/09/07 03:49:44;;;;;;;3.30;2.97;;;;;;;15.83;100.00;98694.47;5055051;28;20204;-51
2022/09/07 03:52:09;;;;;;;3.15;2.95;;;;;;;16.15;100.00;98749.97;5055067;28;20176;-51
2022/09/07 03:54:35;;;;;;;5.63;3.22;;;;;;;16.25;100.00;98750.84;5054764;28;20595;-51
2022/09/07 03:57:00;;;;;;;3.78;3.47;;;;;;;16.04;100.00;98723.16;5054692;28;20257;-51
2022/09/07 03:59:26;;;;;;;6.60;3.88;;;;;;;16.29;100.00;98756.63;5054932;28;20559;-51
2022/09/07 04:01:51;;;;;;;4.28;3.65;;;;;;;16.17;100.00;98762.91;5054722;28;20169;-51
2022/09/07 04:04:17;;;;;;;5.72;4.00;;;;;;;16.14;100.00;98756.16;5054547;28;20178;-51
2022/09/07 04:06:42;;;;;;;3.38;3.08;;;;;;;16.19;100.00;98750.53;5054494;28;20239;-51
2022/09/07 04:09:11;;;;;;;4.50;3.55;;;;;;;16.30;100.00;98758.28;5054355;28;20189;-51
2022/09/07 04:11:37;;;;;;;5.53;3.97;;;;;;;16.32;100.00;98761.59;5054465;28;20173;-51
2022/09/07 04:14:03;;;;;;;3.45;3.20;;;;;;;16.37;100.00;98762.00;5054524;28;20177;-51
2022/09/07 04:16:29;;;;;;;4.45;3.58;;;;;;;16.19;100.00;98768.81;5054351;28;20173;-51
2022/09/07 04:18:55;;;;;;;5.65;3.63;;;;;;;16.12;100.00;98770.28;5054554;28;20611;-51
2022/09/07 04:21:22;;;;;;;4.00;3.60;;;;;;;16.03;100.00;98763.25;5054142;28;20173;-51
2022/09/07 04:23:48;;;;;;;4.25;3.85;;;;;;;16.34;100.00;98783.19;5054172;28;20592;-51
2022/09/07 04:26:22;;;;;;;4.75;3.40;;;;;;;16.20;100.00;98786.16;5054154;28;20250;-50
2022/09/07 04:28:48;;;;;;;3.42;3.20;;;;;;;16.47;100.00;98781.19;5053773;28;20185;-51
2022/09/07 04:31:16;;;;;;;4.60;3.55;;;;;;;16.63;100.00;98787.59;5053247;28;20218;-51
2022/09/07 04:33:43;;;;;;;5.55;3.10;;;;;;;16.69;100.00;98781.81;5053983;28;20177;-51
2022/09/07 04:36:08;;;;;;;4.40;2.95;;;;;;;16.91;98.09;98791.22;5054212;28;20765;-51
2022/09/07 04:38:34;;;;;;;5.43;3.00;;;;;;;16.97;96.39;98796.72;5053937;28;20252;-51
2022/09/07 04:41:02;;;;;;;3.75;3.15;;;;;;;17.04;96.29;98799.63;5053825;28;20216;-51
2022/09/07 04:43:28;;;;;;;4.75;3.13;;;;;;;17.10;95.26;98801.69;5054073;28;20177;-51
2022/09/07 04:45:54;;;;;;;3.17;2.97;;;;;;;17.06;93.70;98800.31;5053979;28;20208;-52
2022/09/07 04:48:19;;;;;;;3.42;3.13;;;;;;;17.15;93.96;98805.53;5053697;28;20685;-52
2022/09/07 04:50:45;;;;;;;3.33;3.03;;;;;;;17.28;93.53;98810.50;5053693;28;20654;-52
2022/09/07 04:53:10;;;;;;;5.53;2.90;;;;;;;17.34;93.87;98820.44;5054373;28;20253;-52
2022/09/07 04:55:35;;;;;;;4.03;2.88;;;;;;;17.35;92.80;98811.63;5053601;28;20642;-52
2022/09/07 04:58:01;;;;;;;3.58;3.28;;;;;;;17.36;93.24;98806.25;5053723;28;20177;-52
2022/09/07 05:00:26;;;;;;;6.07;3.38;;;;;;;17.37;92.91;98805.28;5053921;28;20172;-52
2022/09/07 05:02:52;;;;;;;3.38;3.05;;;;;;;17.30;93.36;98804.19;5053716;28;20176;-52
2022/09/07 05:05:17;;;;;;;5.85;2.80;;;;;;;17.33;93.31;98805.69;5053275;28;20166;-52
2022/09/07 05:07:43;;;;;;;3.65;3.25;;;;;;;17.32;94.11;98807.47;5053217;28;20837;-52
2022/09/07 05:10:08;;;;;;;3.03;2.83;;;;;;;17.38;93.25;98806.16;5053239;28;20689;-52
2022/09/07 05:12:34;;;;;;;3.90;3.13;;;;;;;17.47;92.50;98816.63;5053284;28;20204;-52
2022/09/07 05:15:00;;;;;;;4.95;2.80;;;;;;;17.56;91.28;98821.00;5053264;28;20180;-52
2022/09/07 05:17:25;;;;;;;2.67;2.58;;;;;;;17.69;90.84;98826.81;5053211;28;20169;-52
2022/09/07 05:19:51;;;;;;;3.53;3.25;;;;;;;17.76;90.75;98832.28;5053214;28;20179;-52
2022/09/07 05:22:16;;;;;;;3.53;2.70;;;;;;;17.67;90.12;98825.28;5053010;28;20645;-52
2022/09/07 05:24:42;;;;;;;3.00;2.80;;;;;;;17.85;89.06;98831.47;5053209;28;20169;-52
2022/09/07 05:27:07;;;;;;;6.20;2.97;;;;;;;17.82;88.84;98831.72;5053134;28;20184;-53
2022/09/07 05:29:32;;;;;;;3.88;3.10;;;;;;;17.90;88.72;98839.72;5052895;28;20622;-53
2022/09/07 05:31:58;;;;;;;14.40;6.40;;;;;;;17.81;88.69;98815.22;5052946;28;20195;-53
2022/09/07 05:34:24;;;;;;;7.10;2.88;;;;;;;18.05;88.31;98830.44;5052957;28;20215;-52
2022/09/07 05:36:49;;;;;;;5.03;3.08;;;;;;;18.04;86.63;98824.41;5053273;28;20173;-53
2022/09/07 05:39:15;;;;;;;2.88;2.63;;;;;;;18.06;86.72;98834.72;5053036;28;20210;-53
2022/09/07 05:41:40;;;;;;;2.90;2.70;;;;;;;18.05;86.89;98830.44;5052743;28;20564;-53
2022/09/07 05:44:06;;;;;;;2.92;2.70;;;;;;;18.12;86.82;98828.94;5052704;28;20165;-53
2022/09/07 05:46:31;;;;;;;3.38;2.72;;;;;;;18.12;87.69;98831.56;5052572;28;20231;-53
2022/09/07 05:48:57;;;;;;;4.80;3.25;;;;;;;18.08;86.75;98832.81;5052479;28;20200;-52
2022/09/07 05:51:22;;;;;;;3.80;2.88;;;;;;;18.25;85.35;98834.69;5052630;28;20252;-53
2022/09/07 05:53:49;;;;;;;3.33;2.95;;;;;;;18.21;85.96;98830.69;5034645;28;20626;-51
2022/09/07 05:56:15;;;;;;;3.78;2.75;;;;;;;18.16;85.91;98838.16;5052478;28;20208;-53
2022/09/07 05:58:40;;;;;;;3.58;3.17;;;;;;;18.25;86.40;98829.44;5051733;28;20197;-52
2022/09/07 06:01:11;;;;;;;3.10;2.85;;;;;;;18.34;85.79;98829.44;5052319;28;20223;-53
2022/09/07 06:03:38;;;;;;;2.97;2.78;;;;;;;18.47;85.54;98829.13;5053213;28;20541;-53
2022/09/07 06:06:03;;;;;;;3.40;2.70;;;;;;;18.67;83.39;98822.81;5052167;28;20181;-53
2022/09/07 06:08:30;;;;;;;3.13;2.90;;;;;;;18.72;83.33;98818.78;5050945;28;20602;-53
2022/09/07 06:10:55;;;;;;;6.80;2.97;;;;;;;18.77;82.93;98821.00;5051670;28;20252;-53
2022/09/07 06:13:21;;;;;;;6.72;2.72;;;;;;;18.76;82.18;98809.66;5052415;28;20691;-51
2022/09/07 06:15:46;;;;;;;5.38;2.70;;;;;;;18.93;81.18;98813.28;5052155;28;20661;-52
2022/09/07 06:18:12;;;;;;;2.63;2.53;;;;;;;19.08;80.56;98811.81;5052156;28;20169;-52
2022/09/07 06:20:38;;;;;;;3.67;2.83;;;;;;;19.23;80.18;98808.56;5052043;28;20165;-52
2022/09/07 06:23:03;;;;;;;3.10;2.90;;;;;;;19.45;78.21;98807.28;5052072;28;20578;-52
2022/09/07 06:25:29;;;;;;;3.47;3.10;;;;;;;19.40;77.55;98812.19;5052042;28;20169;-52
2022/09/07 06:27:54;;;;;;;2.97;2.78;;;;;;;19.52;78.05;98811.78;5051969;28;20187;-52
2022/09/07 06:30:20;;;;;;;4.88;2.92;;;;;;;19.45;78.18;98797.63;5051931;28;20193;-52
2022/09/07 06:32:46;;;;;;;3.65;2.88;;;;;;;19.69;78.56;98813.56;5052440;28;20335;-52
2022/09/07 06:35:12;;;;;;;4.43;2.70;;;;;;;19.85;78.61;98805.81;5052143;28;20204;-53
2022/09/07 06:37:38;;;;;;;4.82;3.10;;;;;;;19.98;73.80;98815.91;5052105;28;20169;-53
2022/09/07 06:40:04;;;;;;;3.45;2.90;;;;;;;19.92;74.69;98800.75;5051879;28;20176;-52
2022/09/07 06:42:29;;;;;;;4.28;2.95;;;;;;;19.93;74.81;98805.06;5051829;28;20196;-52
2022/09/07 06:44:55;;;;;;;3.22;2.90;;;;;;;19.94;75.58;98804.88;5051829;28;20634;-52
2022/09/07 06:47:20;;;;;;;8.00;3.75;;;;;;;20.17;75.38;98811.31;5051759;28;20176;-52
2022/09/07 06:49:45;;;;;;;5.10;3.08;;;;;;;20.41;73.36;98808.00;5051705;28;20203;-52
2022/09/07 06:52:11;;;;;;;7.80;3.50;;;;;;;20.34;71.37;98807.78;5051786;28;20602;-53
2022/09/07 06:54:36;;;;;;;8.68;3.42;;;;;;;20.19;72.63;98826.94;5055537;28;20169;-52
2022/09/07 06:57:07;;;;;;;9.82;3.80;;;;;;;20.21;73.03;98817.06;5055864;28;20167;-52
2022/09/07 06:59:33;;;;;;;18.00;9.02;;;;;;;20.45;71.62;98828.56;5056089;28;20157;-53
2022/09/07 07:01:58;;;;;;;9.30;3.83;;;;;;;20.61;70.63;98817.28;5055765;28;20196;-52
2022/09/07 07:04:24;;;;;;;7.05;3.67;;;;;;;20.81;70.29;98822.13;5055847;28;20572;-53
2022/09/07 07:06:49;;;;;;;6.00;4.07;;;;;;;21.04;69.22;98832.97;5055608;28;20204;-52
2022/09/07 07:09:15;;;;;;;8.85;3.45;;;;;;;21.16;68.89;98831.66;5055721;28;20189;-52
2022/09/07 07:11:42;;;;;;;5.07;3.25;;;;;;;21.33;67.74;98844.69;5055622;28;20667;-52
2022/09/07 07:14:13;;;;;;;5.45;3.75;;;;;;;21.48;66.42;98843.09;5055573;28;20185;-52
2022/09/07 07:16:38;;;;;;;6.20;3.30;;;;;;;21.40;66.62;98824.63;5055631;28;20215;-53
2022/09/07 07:19:04;;;;;;;9.68;3.92;;;;;;;21.68;65.20;98848.91;5055468;28;20185;-52
2022/09/07 07:21:29;;;;;;;8.30;3.53;;;;;;;21.58;66.25;98845.56;5055399;28;20332;-52
2022/09/07 07:23:54;;;;;;;6.95;3.78;;;;;;;21.71;64.75;98848.56;5055584;28;20181;-52
2022/09/07 07:26:25;;;;;;;8.15;4.00;;;;;;;21.81;64.59;98850.06;5055508;28;20203;-52
2022/09/07 07:28:53;;;;;;;5.80;3.25;;;;;;;21.82;65.20;98850.88;5055493;28;20271;-52
2022/09/07 07:31:20;;;;;;;8.77;2.88;;;;;;;21.93;64.05;98855.81;5055230;28;20734;-52
2022/09/07 07:33:47;;;;;;;8.15;3.30;;;;;;;21.89;64.25;98865.03;5055150;28;20256;-52
2022/09/07 07:36:24;;;;;;;4.80;3.20;;;;;;;21.85;63.75;98859.25;5055566;28;20243;-53
2022/09/07 07:38:52;;;;;;;7.10;3.13;;;;;;;21.93;64.35;98858.44;5055355;28;20176;-52
2022/09/07 07:41:20;;;;;;;9.18;3.20;;;;;;;21.96;64.50;98852.88;5055298;28;20181;-52
2022/09/07 07:43:47;;;;;;;4.10;3.15;;;;;;;22.07;62.25;98868.31;5055321;28;20242;-53
2022/09/07 07:46:13;;;;;;;2.78;2.55;;;;;;;22.16;62.10;98862.06;5054938;28;20173;-53
2022/09/07 07:48:39;;;;;;;10.30;3.20;;;;;;;21.96;63.73;98853.66;5054863;28;20201;-53
2022/09/07 07:51:08;;;;;;;9.23;3.15;;;;;;;22.12;63.42;98864.22;5054792;28;20256;-53
2022/09/07 07:53:35;;;;;;;4.13;2.90;;;;;;;22.20;63.42;98861.53;5054757;28;20185;-52
2022/09/07 07:56:02;;;;;;;9.18;3.30;;;;;;;22.21;61.97;98851.84;5054810;28;20181;-52
2022/09/07 07:58:29;;;;;;;6.22;3.15;;;;;;;22.09;63.06;98850.53;5054951;28;20181;-53
2022/09/07 08:01:00;;;;;;;5.20;2.78;;;;;;;21.99;62.28;98852.50;5054694;28;20653;-53
2022/09/07 08:03:26;;;;;;;4.63;2.80;;;;;;;21.97;62.40;98849.22;5054762;28;20165;-52
2022/09/07 08:05:52;;;;;;;3.03;2.72;;;;;;;22.04;63.07;98847.56;5054473;28;20204;-53
2022/09/07 08:08:18;;;;;;;5.55;2.97;;;;;;;22.17;62.50;98843.44;5054475;28;20284;-53
2022/09/07 08:10:46;;;;;;;7.10;2.72;;;;;;;22.13;62.46;98849.19;5054404;28;20259;-52
2022/09/07 08:13:11;;;;;;;7.57;3.08;;;;;;;22.29;62.46;98854.44;5054701;28;20177;-53
2022/09/07 08:15:43;;;;;;;5.32;3.53;;;;;;;22.42;62.55;98857.38;5054417;28;20638;-53
2022/09/07 08:18:10;;;;;;;5.15;3.05;;;;;;;22.39;61.89;98860.38;5054625;28;20161;-52
2022/09/07 08:20:36;;;;;;;7.05;3.67;;;;;;;22.38;61.79;98861.38;5054384;28;20180;-52
2022/09/07 08:23:01;;;;;;;4.95;3.15;;;;;;;22.49;62.30;98850.50;5054349;28;20269;-53
2022/09/07 08:25:27;;;;;;;5.60;3.50;;;;;;;22.37;61.89;98851.81;5054222;28;20176;-52
2022/09/07 08:27:52;;;;;;;3.90;3.22;;;;;;;22.54;62.34;98845.50;5054144;28;20212;-52
2022/09/07 08:30:18;;;;;;;3.67;3.33;;;;;;;22.66;61.06;98841.53;5054054;28;20251;-52
2022/09/07 08:32:43;;;;;;;3.35;3.05;;;;;;;22.66;60.62;98847.63;5054070;28;20639;-52
2022/09/07 08:35:08;;;;;;;7.38;3.00;;;;;;;22.75;60.41;98843.16;5054020;28;20177;-52
2022/09/07 08:37:34;;;;;;;6.00;3.45;;;;;;;22.74;60.71;98833.59;5053994;28;20260;-53
2022/09/07 08:39:59;;;;;;;3.45;2.78;;;;;;;22.86;60.74;98837.50;5053957;28;20177;-52
2022/09/07 08:42:54;;;;;;;6.32;2.88;;;;;;;22.96;60.45;98832.84;5053906;28;20260;-52
2022/09/07 08:45:30;;;;;;;3.75;2.80;;;;;;;23.13;59.56;98835.22;5054130;28;20164;-52
2022/09/07 08:47:56;;;;;;;6.93;2.90;;;;;;;23.24;59.07;98836.69;5054465;28;20161;-53
2022/09/07 08:50:44;;;;;;;7.18;3.10;;;;;;;23.26;59.53;98832.03;5035796;28;20678;-52
2022/09/07 08:53:18;;;;;;;3.60;2.65;;;;;;;23.38;57.67;98820.91;5053745;28;20161;-53
2022/09/07 08:56:10;;;;;;;3.10;2.80;;;;;;;23.38;57.13;98822.72;5053683;28;20681;-52
2022/09/07 08:58:36;;;;;;;5.60;3.28;;;;;;;23.25;57.80;98825.91;5053863;28;20165;-53
2022/09/07 09:01:05;;;;;;;9.65;3.03;;;;;;;23.20;57.20;98830.91;5053570;28;20177;-52
2022/09/07 09:03:31;;;;;;;6.40;2.60;;;;;;;23.28;57.51;98816.84;5053681;28;20208;-52
2022/09/07 09:06:21;;;;;;;3.97;2.40;;;;;;;23.15;57.26;98820.03;5053466;28;20165;-53
2022/09/07 09:09:02;;;;;;;5.32;2.35;;;;;;;23.31;56.22;98811.22;5053625;28;20197;-52
2022/09/07 09:11:33;;;;;;;5.60;2.63;;;;;;;23.27;56.01;98808.09;5053415;28;20244;-53
2022/09/07 09:14:09;;;;;;;7.60;2.50;;;;;;;23.28;56.79;98801.00;5053489;28;20235;-52
2022/09/07 09:16:41;;;;;;;3.10;2.60;;;;;;;23.24;56.84;98805.00;5052825;28;20175;-52
2022/09/07 09:19:45;;;;;;;3.97;2.53;;;;;;;23.32;54.14;98802.28;5053322;28;20246;-52
2022/09/07 09:22:20;;;;;;;5.78;2.47;;;;;;;23.50;54.52;98797.53;5053223;28;20252;-52
2022/09/07 09:24:48;;;;;;;9.98;2.45;;;;;;;23.56;53.61;98788.91;5053157;28;20180;-52
2022/09/07 09:27:15;;;;;;;5.72;2.33;;;;;;;23.52;54.19;98798.16;5053308;28;20185;-53
2022/09/07 09:29:40;;;;;;;2.33;2.22;;;;;;;23.58;53.38;98802.75;5052929;28;20204;-52
2022/09/07 09:32:34;;;;;;;4.70;2.30;;;;;;;23.54;52.35;98793.56;5053190;28;20181;-53
2022/09/07 09:35:02;;;;;;;4.20;2.30;;;;;;;23.36;52.54;98798.31;5052793;28;20173;-53
2022/09/07 09:37:36;;;;;;;2.92;2.65;;;;;;;23.28;53.49;98796.53;5053095;28;20225;-52
2022/09/07 09:40:02;;;;;;;2.72;1.98;;;;;;;23.17;52.23;98794.31;5052793;28;20642;-52
2022/09/07 09:42:32;;;;;;;3.83;2.53;;;;;;;23.38;51.89;98797.13;5052766;28;20176;-52
2022/09/07 09:45:25;;;;;;;3.75;2.25;;;;;;;23.56;51.29;98784.44;5052899;28;20173;-52
2022/09/07 09:47:53;;;;;;;4.90;2.15;;;;;;;23.73;52.40;98783.31;5050008;28;20188;-52
2022/09/07 09:50:33;;;;;;;3.00;2.50;;;;;;;23.80;51.95;98786.88;5052529;28;20196;-52
2022/09/07 09:53:00;;;;;;;3.47;2.42;;;;;;;23.92;50.82;98781.00;5052836;28;20164;-52
2022/09/07 09:55:30;;;;;;;3.20;1.88;;;;;;;24.14;50.56;98782.75;5052483;28;20176;-52
2022/09/07 09:58:00;;;;;;;3.45;2.60;;;;;;;24.23;50.24;98777.41;5052567;28;20295;-52
2022/09/07 10:00:27;;;;;;;4.43;2.33;;;;;;;24.27;49.63;98772.38;5052646;28;20522;-52
2022/09/07 10:03:14;;;;;;;6.53;2.38;;;;;;;24.48;49.87;98771.63;5052390;28;20188;-53
2022/09/07 10:05:45;;;;;;;5.50;2.13;;;;;;;24.72;48.49;98764.25;5052444;28;20156;-53
2022/09/07 10:08:24;;;;;;;5.10;1.77;;;;;;;24.78;48.18;98768.81;5052386;28;20197;-52
2022/09/07 10:11:14;;;;;;;4.65;2.17;;;;;;;24.62;47.32;98749.69;5052481;28;20177;-53
2022/09/07 10:13:56;;;;;;;2.10;2.00;;;;;;;24.84;47.69;98746.06;5052483;28;20208;-53
2022/09/07 10:16:39;;;;;;;4.43;2.40;;;;;;;24.94;47.52;98734.16;5052703;28;20260;-52
2022/09/07 10:19:04;;;;;;;2.92;1.90;;;;;;;25.24;46.49;98743.66;5052463;28;20161;-53
2022/09/07 10:21:31;;;;;;;2.17;2.08;;;;;;;25.33;45.86;98736.41;5052084;28;20539;-53
2022/09/07 10:23:57;;;;;;;1.85;1.75;;;;;;;25.49;45.05;98736.97;5052121;28;20176;-53
2022/09/07 10:26:35;;;;;;;2.55;2.05;;;;;;;25.30;45.26;98728.88;5052057;28;20165;-52
2022/09/07 10:29:13;;;;;;;4.15;2.10;;;;;;;25.39;44.02;98728.53;5051405;28;20208;-52
2022/09/07 10:31:55;;;;;;;3.10;1.77;;;;;;;25.39;44.85;98728.53;5052167;28;20235;-52
2022/09/07 10:34:38;;;;;;;3.13;2.22;;;;;;;25.56;44.33;98729.91;5052251;28;20248;-52
2022/09/07 10:37:08;;;;;;;2.95;2.10;;;;;;;25.72;44.56;98721.66;5052226;28;20169;-52
2022/09/07 10:39:49;;;;;;;4.68;1.92;;;;;;;25.94;44.26;98720.63;5052092;28;20181;-52
2022/09/07 10:42:29;;;;;;;2.67;2.33;;;;;;;26.27;44.43;98708.38;5051921;28;20165;-53
2022/09/07 10:45:01;;;;;;;3.35;2.13;;;;;;;26.60;43.74;98713.84;5051739;28;20259;-53
2022/09/07 10:47:26;;;;;;;3.92;2.00;;;;;;;26.91;42.47;98709.66;5051714;28;20173;-53
2022/09/07 10:49:56;;;;;;;5.47;1.77;;;;;;;27.06;40.90;98718.25;5051597;28;20223;-53
2022/09/07 10:52:39;;;;;;;4.50;1.80;;;;;;;27.30;40.88;98719.56;5051737;28;20669;-53
2022/09/07 10:55:25;;;;;;;2.30;2.00;;;;;;;27.41;40.59;98716.31;5052041;28;20694;-53
2022/09/07 10:58:11;;;;;;;3.50;1.88;;;;;;;27.08;40.26;98702.13;5051668;28;20551;-53
2022/09/07 11:01:02;;;;;;;2.88;1.85;;;;;;;27.21;40.32;98699.50;5052226;28;20182;-53
2022/09/07 11:03:42;;;;;;;3.92;2.00;;;;;;;27.48;39.02;98704.66;5051180;28;20248;-53
2022/09/07 11:06:16;;;;;;;2.30;1.98;;;;;;;27.47;39.29;98705.66;5051588;28;20189;-53
2022/09/07 11:09:03;;;;;;;3.13;2.00;;;;;;;27.62;39.04;98698.31;5051634;28;20576;-53
2022/09/07 11:11:33;;;;;;;2.58;2.20;;;;;;;27.56;39.44;98701.78;5051610;28;20177;-53
2022/09/07 11:14:15;;;;;;;2.85;2.10;;;;;;;27.46;38.73;98696.06;5051582;28;20176;-53
2022/09/07 11:16:55;;;;;;;3.92;2.00;;;;;;;27.20;38.40;98696.06;5051517;28;20157;-53
2022/09/07 11:19:26;;;;;;;2.40;2.17;;;;;;;27.48;38.85;98690.53;5051517;28;20591;-53
2022/09/07 11:22:06;;;;;;;1.65;1.55;;;;;;;27.79;38.90;98688.09;5051454;28;20204;-53
2022/09/07 11:24:55;;;;;;;2.58;2.38;;;;;;;28.03;37.77;98692.75;5051321;28;20158;-53
2022/09/07 11:27:32;;;;;;;2.10;1.90;;;;;;;28.13;37.24;98699.28;5052014;28;20168;-53
2022/09/07 11:30:15;;;;;;;3.88;2.05;;;;;;;28.17;37.75;98691.69;5051339;28;20193;-53
2022/09/07 11:33:07;;;;;;;2.20;1.95;;;;;;;28.09;37.38;98679.44;5051410;28;20701;-53
2022/09/07 11:35:42;;;;;;;2.47;1.92;;;;;;;27.72;38.59;98677.44;5038898;28;20193;-53
2022/09/07 11:38:24;;;;;;;2.15;1.95;;;;;;;27.64;38.87;98667.00;5051280;28;20692;-53
2022/09/07 11:40:56;;;;;;;2.95;2.03;;;;;;;27.52;39.14;98676.63;5055404;28;20181;-53
2022/09/07 11:43:27;;;;;;;2.97;2.03;;;;;;;27.56;39.06;98672.53;5055376;28;20657;-53
2022/09/07 11:46:12;;;;;;;4.07;2.47;;;;;;;27.54;37.97;98666.63;5055171;28;20541;-53
2022/09/07 11:48:43;;;;;;;1.90;1.80;;;;;;;27.58;37.17;98656.38;5055057;28;20686;-54